Pinedale, WY

3:13 PM MDT on July 26, 2017 (GMT -0600)
Wenz

Weather History for KPNA - November, 2011

Change the Weather History Date:

Monday, November 28, 2011

  Actual Average (KBPI) Record (KBPI)
Temperature  
Mean Temperature 25 °F -  
Max Temperature 42 °F 28 °F 55 °F (2014)
Min Temperature 8 °F 4 °F -16 °F (2015)
Degree Days  
Heating Degree Days 40    
Moisture  
Dew Point 17 °F    
Average Humidity 73    
Maximum Humidity 95    
Minimum Humidity 42    
Precipitation  
Precipitation 0.00 in - - ()
Sea Level Pressure  
Sea Level Pressure 30.34 in    
Wind  
Wind Speed 6 mph (WNW)    
Max Wind Speed 12 mph    
Max Gust Speed -    
Visibility 10 miles    
Events      
Averages and records for this station are not official NWS values.
T = Trace of Precipitation, MM = Missing Value Source: NWS Daily Summary

Daily Weather History Graph

Daily Weather History Graph

Search for Another Location

Airport or City:

Trip Planner

Search our weather history database for the weather conditions in past years. The results will help you decide how hot, cold, wet, or windy it might be!

Date:

Astronomy

Nov. 28, 2011 Rise Set
Actual Time 7:26 AM MST 4:47 PM MST
Civil Twilight 6:55 AM MST 5:18 PM MST
Nautical Twilight 6:20 AM MST 5:53 PM MST
Astronomical Twilight 5:46 AM MST 6:27 PM MST
Moon 10:37 AM MST (11/28) 8:39 PM MST (11/28)
Length of Visible Light 10h 23m
Length of Day
9h 20m
Waxing Crescent, 16% of the Moon is Illuminated
Nov 28
Waxing Crescent
Dec 2
First Quarter
Dec 10
Full
Dec 17
Last Quarter
Dec 24
New

Hourly Weather History & Observations

Time (MST) Temp. Windchill Dew Point Humidity Pressure Visibility Wind Dir Wind Speed Gust Speed Precip Events Conditions
12:15 AM 12.2 °F 2.9 °F 10.4 °F 92% 30.36 in 10.0 mi WNW 5.8 mph - N/A   Mostly Cloudy
12:35 AM 11.8 °F 0.3 °F 10.2 °F 93% 30.35 in 10.0 mi WNW 8.1 mph - N/A   Scattered Clouds
12:55 AM 12.0 °F 2.7 °F 9.9 °F 91% 30.35 in 10.0 mi NW 5.8 mph - N/A   Clear
1:15 AM 10.6 °F -0.2 °F 9.1 °F 94% 30.35 in 10.0 mi WNW 6.9 mph - N/A   Clear
1:35 AM 10.6 °F 4.3 °F 8.6 °F 92% 30.35 in 10.0 mi WNW 3.5 mph - N/A   Clear
1:55 AM 9.9 °F -1.1 °F 8.6 °F 95% 30.35 in 10.0 mi WSW 6.9 mph - N/A   Clear
2:15 AM 9.9 °F -3.1 °F 8.4 °F 94% 30.35 in 10.0 mi West 9.2 mph - N/A   Clear
2:35 AM 10.9 °F -0.8 °F 9.1 °F 92% 30.35 in 10.0 mi WNW 8.1 mph - N/A   Clear
2:55 AM 13.8 °F 2.7 °F 10.9 °F 88% 30.35 in 10.0 mi NW 8.1 mph - N/A   Clear
3:15 AM 11.1 °F -0.6 °F 8.4 °F 89% 30.35 in 10.0 mi West 8.1 mph - N/A   Clear
3:35 AM 9.9 °F 1.6 °F 7.9 °F 92% 30.35 in 10.0 mi West 4.6 mph - N/A   Clear
3:55 AM 10.2 °F - 8.4 °F 92% 30.34 in 10.0 mi Calm Calm - N/A   Clear
4:15 AM 8.6 °F -1.3 °F 6.6 °F 92% 30.34 in 10.0 mi NW 5.8 mph - N/A   Clear
4:35 AM 8.8 °F -2.4 °F 7.3 °F 94% 30.34 in 10.0 mi WNW 6.9 mph - N/A   Clear
4:55 AM 10.2 °F 2.0 °F 8.1 °F 91% 30.34 in 10.0 mi WNW 4.6 mph - N/A   Clear
5:35 AM 8.8 °F -1.1 °F 7.3 °F 94% 30.34 in 10.0 mi WNW 5.8 mph - N/A   Scattered Clouds
5:55 AM 9.7 °F 1.4 °F 8.1 °F 93% 30.34 in 10.0 mi West 4.6 mph - N/A   Clear
6:35 AM 9.7 °F 1.4 °F 7.7 °F 92% 30.34 in 10.0 mi WNW 4.6 mph - N/A   Clear
6:55 AM 9.3 °F -0.5 °F 7.5 °F 92% 30.35 in 10.0 mi West 5.8 mph - N/A   Clear
7:35 AM 9.5 °F 1.2 °F 7.5 °F 92% 30.35 in 10.0 mi West 4.6 mph - N/A   Clear
7:55 AM 10.0 °F 3.6 °F 8.1 °F 92% 30.35 in 10.0 mi NW 3.5 mph - N/A   Clear
8:15 AM 13.8 °F 8.0 °F 10.0 °F 85% 30.36 in 10.0 mi NNW 3.5 mph - N/A   Clear
8:35 AM 14.7 °F - 11.8 °F 88% 30.35 in 10.0 mi Calm Calm - N/A   Clear
8:55 AM 17.8 °F 12.5 °F 13.8 °F 84% 30.36 in 10.0 mi WNW 3.5 mph - N/A   Scattered Clouds
9:15 AM 23.2 °F - 18.3 °F 82% 30.36 in 10.0 mi Calm Calm - N/A   Scattered Clouds
9:35 AM 27.0 °F 23.0 °F 18.9 °F 72% 30.36 in 10.0 mi WNW 3.5 mph - N/A   Clear
9:55 AM 28.4 °F - 19.6 °F 70% 30.35 in 10.0 mi Calm Calm - N/A   Clear
10:15 AM 32.0 °F 28.7 °F 21.6 °F 65% 30.35 in 10.0 mi NW 3.5 mph - N/A   Clear
10:35 AM 34.7 °F 30.6 °F 21.6 °F 59% 30.35 in 10.0 mi WNW 4.6 mph - N/A   Clear
10:55 AM 37.4 °F 32.1 °F 22.1 °F 54% 30.35 in 10.0 mi NW 6.9 mph - N/A   Clear
11:15 AM 38.1 °F 32.3 °F 20.7 °F 49% 30.35 in 10.0 mi NW 8.1 mph - N/A   Clear
11:55 AM 41.9 °F 36.3 °F 21.2 °F 44% 30.34 in 10.0 mi NW 9.2 mph - N/A   Clear
12:15 PM 41.4 °F 36.8 °F 22.6 °F 47% 30.34 in 10.0 mi NW 6.9 mph - N/A   Clear
12:35 PM 42.3 °F 35.9 °F 20.7 °F 42% 30.33 in 10.0 mi NNW 11.5 mph - N/A   Clear
12:55 PM 42.4 °F 36.5 °F 22.3 °F 45% 30.33 in 10.0 mi NW 10.4 mph - N/A   Clear
1:15 PM 42.8 °F 37.5 °F 22.6 °F 45% 30.32 in 10.0 mi NW 9.2 mph - N/A   Clear
1:55 PM 42.1 °F 38.4 °F 23.2 °F 47% 30.32 in 10.0 mi NW 5.8 mph - N/A   Clear
2:15 PM 42.8 °F 37.0 °F 22.1 °F 44% 30.31 in 10.0 mi NW 10.4 mph - N/A   Clear
2:35 PM 41.9 °F 37.5 °F 22.3 °F 46% 30.31 in 10.0 mi WNW 6.9 mph - N/A   Clear
2:55 PM 40.1 °F 36.9 °F 24.3 °F 53% 30.32 in 10.0 mi NW 4.6 mph - N/A   Scattered Clouds
3:15 PM 40.6 °F 38.6 °F 24.4 °F 53% 30.32 in 10.0 mi WNW 3.5 mph - N/A   Overcast
3:35 PM 41.0 °F - 24.1 °F 51% 30.33 in 10.0 mi Calm Calm - N/A   Overcast
3:55 PM 39.4 °F 37.2 °F 24.8 °F 56% 30.33 in 10.0 mi NW 3.5 mph - N/A   Overcast
4:15 PM 39.0 °F 34.8 °F 24.4 °F 56% 30.33 in 10.0 mi NNW 5.8 mph - N/A   Overcast
4:35 PM 38.8 °F 33.8 °F 25.0 °F 58% 30.34 in 10.0 mi NW 6.9 mph - N/A   Overcast
4:55 PM 39.0 °F 34.0 °F 25.2 °F 58% 30.34 in 10.0 mi WNW 6.9 mph - N/A   Overcast
5:15 PM 37.4 °F 31.4 °F 25.9 °F 63% 30.34 in 10.0 mi West 8.1 mph - N/A   Overcast
5:35 PM 37.4 °F 30.3 °F 25.5 °F 62% 30.34 in 10.0 mi West 10.4 mph - N/A   Overcast
5:55 PM 37.4 °F 29.8 °F 24.6 °F 60% 30.34 in 10.0 mi West 11.5 mph - N/A   Overcast
6:15 PM 36.0 °F 28.5 °F 23.7 °F 61% 30.33 in 10.0 mi West 10.4 mph - N/A   Mostly Cloudy
6:35 PM 33.8 °F 26.4 °F 23.0 °F 65% 30.33 in 10.0 mi WNW 9.2 mph - N/A   Scattered Clouds
7:15 PM 29.5 °F 24.5 °F 23.5 °F 79% 30.34 in 10.0 mi WNW 4.6 mph - N/A   Scattered Clouds
7:35 PM 27.0 °F 21.6 °F 22.8 °F 84% 30.34 in 10.0 mi West 4.6 mph - N/A   Mostly Cloudy
7:55 PM 27.0 °F 20.5 °F 22.5 °F 83% 30.34 in 10.0 mi NW 5.8 mph - N/A   Mostly Cloudy
8:15 PM 25.3 °F 18.5 °F 22.1 °F 87% 30.33 in 10.0 mi WSW 5.8 mph - N/A   Clear
8:35 PM 24.3 °F 17.3 °F 21.0 °F 87% 30.34 in 10.0 mi NW 5.8 mph - N/A   Clear
8:55 PM 21.4 °F 15.1 °F 19.4 °F 92% 30.34 in 10.0 mi WNW 4.6 mph - N/A   Clear
9:15 PM 23.0 °F 17.0 °F 20.8 °F 91% 30.34 in 10.0 mi NNW 4.6 mph - N/A   Clear
9:35 PM 23.7 °F - 21.6 °F 91% 30.34 in 10.0 mi Calm Calm - N/A   Clear
9:55 PM 22.1 °F 13.7 °F 19.9 °F 91% 30.35 in 10.0 mi WNW 6.9 mph - N/A   Clear
10:15 PM 21.2 °F 12.6 °F 19.4 °F 93% 30.35 in 10.0 mi West 6.9 mph - N/A   Scattered Clouds
10:35 PM 21.6 °F 13.0 °F 19.2 °F 91% 30.35 in 10.0 mi NW 6.9 mph - N/A   Scattered Clouds
10:55 PM 20.5 °F 11.7 °F 18.3 °F 91% 30.35 in 10.0 mi NW 6.9 mph - N/A   Clear
11:15 PM 18.7 °F 13.5 °F 17.4 °F 95% 30.35 in 10.0 mi WNW 3.5 mph - N/A   Clear
11:35 PM 17.1 °F 10.0 °F 15.6 °F 94% 30.34 in 10.0 mi NW 4.6 mph - N/A   Clear
11:55 PM 17.8 °F 9.6 °F 16.7 °F 96% 30.35 in 10.0 mi WNW 5.8 mph - N/A   Clear